createdAt,value
2022-12-20T00:00:05.365Z,14.87
2022-12-20T00:05:07.897Z,15.40
2022-12-20T00:10:10.475Z,14.10
2022-12-20T00:15:12.710Z,14.30
2022-12-20T00:20:15.072Z,13.70
2022-12-20T00:25:17.632Z,15.37
2022-12-20T00:30:20.664Z,14.53
2022-12-20T00:35:23.003Z,14.27
2022-12-20T00:40:27.043Z,13.87
2022-12-20T00:45:29.311Z,15.00
2022-12-20T00:50:31.857Z,14.07
2022-12-20T00:55:34.041Z,14.73
2022-12-20T01:00:36.777Z,13.00
2022-12-20T01:05:39.654Z,14.27
2022-12-20T01:10:42.486Z,14.03
2022-12-20T01:15:45.027Z,13.57
2022-12-20T01:20:47.319Z,13.87
2022-12-20T01:25:51.762Z,14.93
2022-12-20T01:30:54.010Z,13.70
2022-12-20T01:35:59.464Z,13.93
2022-12-20T01:41:02.618Z,14.30
2022-12-20T01:46:04.901Z,14.55
2022-12-20T01:51:07.751Z,14.47
2022-12-20T01:56:11.130Z,13.50
2022-12-20T02:01:13.600Z,14.20
2022-12-20T02:06:20.583Z,13.53
2022-12-20T02:16:48.749Z,13.30
2022-12-20T02:22:16.726Z,13.20
2022-12-20T02:27:48.643Z,13.10
2022-12-20T02:44:04.454Z,13.07
2022-12-20T02:49:14.286Z,12.87
2022-12-20T02:54:17.996Z,13.73
2022-12-20T02:59:27.437Z,12.77
2022-12-20T03:04:34.971Z,13.23
2022-12-20T03:09:40.267Z,12.87
2022-12-20T03:14:42.665Z,12.17
2022-12-20T03:19:47.211Z,11.60
2022-12-20T03:24:50.380Z,13.10
2022-12-20T03:29:53.119Z,13.00
2022-12-20T03:34:55.658Z,12.30
2022-12-20T03:40:08.232Z,12.53
2022-12-20T03:45:11.276Z,12.73
2022-12-20T03:50:13.977Z,12.70
2022-12-20T03:55:19.143Z,13.17
2022-12-20T04:00:21.933Z,13.13
2022-12-20T04:05:28.874Z,12.73
2022-12-20T04:10:32.792Z,12.93
2022-12-20T04:15:35.146Z,12.47
2022-12-20T04:20:37.819Z,11.80
2022-12-20T04:25:51.159Z,13.17
2022-12-20T04:30:54.122Z,13.10
2022-12-20T04:36:00.185Z,13.87
2022-12-20T04:41:04.186Z,13.13
2022-12-20T04:46:17.656Z,13.30
2022-12-20T04:51:20.581Z,12.83
2022-12-20T04:56:26.219Z,14.37
2022-12-20T05:01:29.016Z,13.23
2022-12-20T05:06:31.508Z,13.47
2022-12-20T05:11:34.306Z,13.53
2022-12-20T05:16:39.293Z,13.57
2022-12-20T05:22:02.152Z,13.20
2022-12-20T05:27:06.368Z,13.73
2022-12-20T05:32:08.720Z,14.30
2022-12-20T05:37:16.662Z,14.90
2022-12-20T05:42:19.645Z,14.17
2022-12-20T05:47:25.323Z,15.80
2022-12-20T05:52:36.386Z,14.67
2022-12-20T05:57:39.030Z,16.47
2022-12-20T06:02:41.648Z,15.93
2022-12-20T06:07:44.363Z,18.00
2022-12-20T06:12:48.865Z,13.63
2022-12-20T06:17:51.979Z,15.67
2022-12-20T06:22:54.472Z,14.40
2022-12-20T06:27:57.072Z,15.53
2022-12-20T06:33:00.137Z,19.73
2022-12-20T06:38:02.708Z,14.40
2022-12-20T06:43:08.653Z,18.33
2022-12-20T06:48:11.681Z,17.03
2022-12-20T06:53:14.815Z,15.27
2022-12-20T06:58:18.236Z,13.83
2022-12-20T07:03:22.838Z,14.60
2022-12-20T07:08:25.723Z,14.17
2022-12-20T07:13:27.958Z,13.97
2022-12-20T07:18:30.931Z,32.97
2022-12-20T07:23:33.508Z,15.93
2022-12-20T07:28:35.748Z,18.48
2022-12-20T07:33:38.887Z,12.80
2022-12-20T07:38:41.120Z,11.45
2022-12-20T07:43:43.755Z,12.43
2022-12-20T07:48:46.069Z,12.70
2022-12-20T07:53:53.126Z,11.60
2022-12-20T07:58:58.614Z,11.53
2022-12-20T08:04:05.859Z,12.00
2022-12-20T08:09:10.220Z,9.57
2022-12-20T08:14:13.155Z,13.77
2022-12-20T08:19:15.374Z,13.00
2022-12-20T08:24:17.649Z,13.23
2022-12-20T08:29:19.889Z,16.20
2022-12-20T08:34:22.187Z,16.65
2022-12-20T08:39:24.457Z,14.97
2022-12-20T08:44:26.705Z,14.25
2022-12-20T08:49:28.943Z,14.30
2022-12-20T08:54:31.251Z,11.52
2022-12-20T08:59:33.486Z,11.43
2022-12-20T09:04:35.780Z,10.65
2022-12-20T09:09:38.016Z,11.93
2022-12-20T09:14:40.281Z,13.32
2022-12-20T09:19:42.456Z,13.30
2022-12-20T09:24:44.714Z,11.07
2022-12-20T09:29:46.988Z,11.55
2022-12-20T09:34:49.930Z,10.43
2022-12-20T09:39:52.180Z,12.02
2022-12-20T09:45:06.264Z,9.80
2022-12-20T09:55:39.372Z,10.05
2022-12-20T10:00:53.493Z,9.90
2022-12-20T10:06:00.861Z,10.27
2022-12-20T10:11:36.604Z,9.63
2022-12-20T10:16:47.825Z,9.93
2022-12-20T10:27:15.527Z,10.50
2022-12-20T10:32:21.646Z,10.25
2022-12-20T10:37:23.942Z,9.90
2022-12-20T10:47:41.766Z,10.35
2022-12-20T10:52:45.761Z,10.35
2022-12-20T10:57:48.019Z,10.65
2022-12-20T11:03:12.000Z,10.73
2022-12-20T11:08:47.427Z,11.60
2022-12-20T11:13:41.731Z,10.88
2022-12-20T11:24:10.759Z,10.10
2022-12-20T12:00:26.470Z,10.13
2022-12-20T12:05:44.289Z,10.10
2022-12-20T12:11:40.024Z,10.63
2022-12-20T12:16:42.787Z,10.13
2022-12-20T12:21:52.603Z,10.35
2022-12-20T12:26:55.528Z,11.65
2022-12-20T12:52:54.169Z,10.45
2022-12-20T12:57:58.352Z,10.95
2022-12-20T13:03:14.339Z,10.52
2022-12-20T13:08:17.921Z,11.80
2022-12-20T13:13:23.709Z,10.13
2022-12-20T13:18:26.522Z,10.35
2022-12-20T13:23:28.799Z,10.77
2022-12-20T13:33:44.288Z,13.20
2022-12-20T13:44:01.305Z,14.30
2022-12-20T13:49:05.474Z,12.32
2022-12-20T13:54:15.473Z,12.88
2022-12-20T13:59:27.862Z,14.25
2022-12-20T14:04:56.097Z,11.23
2022-12-20T14:10:01.961Z,10.65
2022-12-20T14:15:23.162Z,12.15
2022-12-20T14:20:32.332Z,11.77
2022-12-20T14:25:40.114Z,11.52
2022-12-20T14:30:44.741Z,10.80
2022-12-20T14:35:49.224Z,12.32
2022-12-20T14:40:54.109Z,13.02
2022-12-20T14:46:19.688Z,12.35
2022-12-20T14:51:22.227Z,14.10
2022-12-20T14:56:31.507Z,15.85
2022-12-20T15:01:39.924Z,18.23
2022-12-20T15:06:46.093Z,34.15
2022-12-20T15:11:49.122Z,23.85
2022-12-20T15:16:52.190Z,22.55
2022-12-20T15:21:54.751Z,18.90
2022-12-20T15:26:57.205Z,17.77
2022-12-20T15:32:09.432Z,17.42
2022-12-20T15:37:18.199Z,15.50
2022-12-20T15:42:23.021Z,16.10
2022-12-20T15:47:25.274Z,17.15
2022-12-20T15:52:27.632Z,16.63
2022-12-20T15:57:30.849Z,14.95
2022-12-20T16:02:33.681Z,34.30
2022-12-20T16:07:36.109Z,20.60
2022-12-20T16:12:38.691Z,21.33
2022-12-20T16:17:40.901Z,22.75
2022-12-20T16:22:43.520Z,21.67
2022-12-20T16:27:45.772Z,21.00
2022-12-20T16:32:48.021Z,22.35
2022-12-20T16:37:50.574Z,21.90
2022-12-20T16:42:53.922Z,31.85
2022-12-20T16:47:57.046Z,33.22
2022-12-20T16:52:59.563Z,24.40
2022-12-20T16:58:02.031Z,15.73
2022-12-20T17:03:04.852Z,16.40
2022-12-20T17:13:27.285Z,15.32
2022-12-20T17:18:29.646Z,17.27
2022-12-20T17:23:37.997Z,17.98
2022-12-20T17:28:40.340Z,14.70
2022-12-20T17:33:42.669Z,15.25
2022-12-20T17:38:45.247Z,17.15
2022-12-20T17:43:47.627Z,19.27
2022-12-20T17:48:50.562Z,20.25
2022-12-20T17:53:56.514Z,20.65
2022-12-20T17:59:00.274Z,19.67
2022-12-20T18:04:06.788Z,18.05
2022-12-20T18:09:18.889Z,18.67
2022-12-20T18:14:21.115Z,21.77
2022-12-20T18:19:23.371Z,29.10
2022-12-20T18:24:25.777Z,20.02
2022-12-20T18:29:28.613Z,17.75
2022-12-20T18:34:30.860Z,30.45
2022-12-20T18:39:33.505Z,21.05
2022-12-20T18:44:36.381Z,22.58
2022-12-20T18:49:38.723Z,17.65
2022-12-20T18:54:41.141Z,17.85
2022-12-20T18:59:43.661Z,21.52
2022-12-20T19:04:46.130Z,21.67
2022-12-20T19:09:48.486Z,19.40
2022-12-20T19:14:50.908Z,16.67
2022-12-20T19:19:53.282Z,17.55
2022-12-20T19:24:56.799Z,14.88
2022-12-20T19:29:59.045Z,16.00
2022-12-20T19:35:16.385Z,13.68
2022-12-20T19:40:23.519Z,13.90
2022-12-20T19:45:25.805Z,17.20
2022-12-20T19:50:28.329Z,36.55
2022-12-20T19:55:30.696Z,26.98
2022-12-20T20:00:33.586Z,41.58
2022-12-20T20:05:35.911Z,26.00
2022-12-20T20:16:01.156Z,14.02
2022-12-20T20:21:14.235Z,13.85
2022-12-20T20:26:19.347Z,13.43
2022-12-20T20:31:22.407Z,12.43
2022-12-20T20:36:24.997Z,13.10
2022-12-20T20:41:27.477Z,13.05
2022-12-20T20:46:30.061Z,10.32
2022-12-20T20:51:32.487Z,11.38
2022-12-20T20:56:34.852Z,11.40
2022-12-20T21:01:37.565Z,10.70
2022-12-20T21:06:42.164Z,10.98
2022-12-20T21:11:44.952Z,11.10
2022-12-20T21:16:47.426Z,10.77
2022-12-20T21:21:49.786Z,11.00
2022-12-20T21:26:53.885Z,10.68
2022-12-20T21:31:56.589Z,10.90
2022-12-20T21:36:58.980Z,10.30
2022-12-20T21:42:02.162Z,11.30
2022-12-20T21:47:05.195Z,12.27
2022-12-20T21:52:07.488Z,11.07
2022-12-20T21:57:10.968Z,10.50
2022-12-20T22:02:14.442Z,10.18
2022-12-20T22:08:16.391Z,9.27
2022-12-20T22:13:58.481Z,9.80
2022-12-20T22:19:02.025Z,8.90
2022-12-20T22:24:04.871Z,9.55
2022-12-20T22:29:07.988Z,10.90
2022-12-20T22:34:10.410Z,10.25
2022-12-20T22:39:14.383Z,10.60
2022-12-20T22:44:16.807Z,12.73
2022-12-20T22:49:19.099Z,13.98
2022-12-20T22:54:21.359Z,11.98
2022-12-20T22:59:23.592Z,11.35
2022-12-20T23:04:25.923Z,10.32
2022-12-20T23:09:28.316Z,10.00
2022-12-20T23:14:50.545Z,8.90
2022-12-20T23:20:12.639Z,9.55
2022-12-20T23:25:19.010Z,11.35
2022-12-20T23:30:23.778Z,10.55
2022-12-20T23:35:27.040Z,9.52
2022-12-20T23:40:29.317Z,9.77
2022-12-20T23:45:32.047Z,10.50
2022-12-20T23:50:34.256Z,14.18
2022-12-20T23:55:36.511Z,10.15
